createdAt,value
2023-04-13T00:00:36.631Z,45.81
2023-04-13T00:03:03.859Z,46.28
2023-04-13T00:05:31.296Z,47.00
2023-04-13T00:08:03.028Z,46.86
2023-04-13T00:10:31.552Z,47.07
2023-04-13T00:13:01.650Z,47.25
2023-04-13T00:15:28.319Z,47.36
2023-04-13T00:17:55.120Z,48.29
2023-04-13T00:20:21.829Z,49.24
2023-04-13T00:22:49.030Z,50.60
2023-04-13T00:25:15.921Z,50.85
2023-04-13T00:27:43.618Z,50.95
2023-04-13T00:30:11.661Z,49.99
2023-04-13T00:32:39.141Z,52.19
2023-04-13T00:35:06.075Z,51.46
2023-04-13T00:37:32.877Z,51.71
2023-04-13T00:39:59.642Z,52.16
2023-04-13T00:42:26.753Z,52.65
2023-04-13T00:44:53.739Z,50.93
2023-04-13T00:47:22.586Z,51.99
2023-04-13T00:49:49.519Z,50.68
2023-04-13T00:52:16.315Z,50.52
2023-04-13T00:54:43.025Z,50.12
2023-04-13T00:57:09.731Z,51.03
2023-04-13T00:59:36.478Z,51.49
2023-04-13T01:02:05.686Z,50.91
2023-04-13T01:04:32.694Z,51.39
2023-04-13T01:07:03.590Z,52.54
2023-04-13T01:09:31.602Z,52.63
2023-04-13T01:12:17.912Z,51.67
2023-04-13T01:14:57.027Z,51.23
2023-04-13T01:17:28.988Z,52.20
2023-04-13T01:20:01.723Z,52.24
2023-04-13T01:22:29.554Z,53.53
2023-04-13T01:25:03.738Z,54.88
2023-04-13T01:27:30.400Z,56.55
2023-04-13T01:29:57.188Z,55.93
2023-04-13T01:32:23.904Z,56.06
2023-04-13T01:34:50.570Z,55.74
2023-04-13T01:37:17.573Z,56.45
2023-04-13T01:39:44.317Z,55.30
2023-04-13T01:42:11.164Z,55.39
2023-04-13T01:44:38.264Z,55.85
2023-04-13T01:47:16.209Z,56.43
2023-04-13T01:49:45.208Z,57.25
2023-04-13T01:52:12.137Z,58.41
2023-04-13T01:54:38.848Z,57.26
2023-04-13T01:57:05.531Z,59.19
2023-04-13T01:59:32.396Z,65.64
2023-04-13T02:01:59.613Z,67.01
2023-04-13T02:04:26.469Z,65.49
2023-04-13T02:06:53.498Z,64.22
2023-04-13T02:09:20.194Z,62.01
2023-04-13T02:11:47.625Z,61.41
2023-04-13T02:14:14.811Z,62.75
2023-04-13T02:16:42.007Z,64.03
2023-04-13T02:19:08.823Z,61.15
2023-04-13T02:21:35.484Z,62.95
2023-04-13T02:24:02.782Z,62.23
2023-04-13T02:26:29.435Z,59.85
2023-04-13T02:28:56.685Z,60.22
2023-04-13T02:31:23.692Z,62.30
2023-04-13T02:33:51.933Z,63.14
2023-04-13T02:36:19.356Z,64.91
2023-04-13T02:38:46.096Z,64.33
2023-04-13T02:41:12.800Z,68.39
2023-04-13T02:43:39.473Z,64.55
2023-04-13T02:46:06.426Z,62.52
2023-04-13T02:48:33.252Z,63.30
2023-04-13T02:50:59.935Z,62.39
2023-04-13T02:53:27.368Z,62.15
2023-04-13T02:55:55.066Z,63.46
2023-04-13T02:58:23.478Z,60.46
2023-04-13T03:00:50.306Z,60.95
2023-04-13T03:03:17.248Z,62.52
2023-04-13T03:05:44.058Z,61.50
2023-04-13T03:08:10.752Z,62.46
2023-04-13T03:10:40.554Z,62.76
2023-04-13T03:13:07.696Z,61.94
2023-04-13T03:15:34.441Z,63.12
2023-04-13T03:18:01.268Z,62.93
2023-04-13T03:20:29.385Z,62.76
2023-04-13T03:22:57.307Z,64.01
2023-04-13T03:25:24.010Z,62.77
2023-04-13T03:27:51.031Z,64.21
2023-04-13T03:30:18.898Z,63.55
2023-04-13T03:32:45.868Z,66.31
2023-04-13T03:35:12.637Z,62.76
2023-04-13T03:37:43.614Z,63.44
2023-04-13T03:40:10.890Z,64.12
2023-04-13T03:42:38.000Z,63.31
2023-04-13T03:45:05.219Z,61.65
2023-04-13T03:47:31.977Z,65.08
2023-04-13T03:49:58.695Z,66.75
2023-04-13T03:52:25.499Z,66.50
2023-04-13T03:54:52.527Z,66.21
2023-04-13T03:57:19.235Z,69.03
2023-04-13T03:59:45.888Z,68.52
2023-04-13T04:02:12.576Z,69.87
2023-04-13T04:04:39.338Z,70.13
2023-04-13T04:07:06.085Z,69.70
2023-04-13T04:09:33.002Z,69.25
2023-04-13T04:11:59.727Z,70.27
2023-04-13T04:14:26.406Z,73.85
2023-04-13T04:16:53.095Z,72.12
2023-04-13T04:19:19.840Z,71.93
2023-04-13T04:21:47.234Z,71.26
2023-04-13T04:24:23.526Z,68.62
2023-04-13T04:26:50.714Z,66.18
2023-04-13T04:29:17.989Z,67.03
2023-04-13T04:31:44.728Z,70.82
2023-04-13T04:34:11.764Z,72.02
2023-04-13T04:36:41.946Z,74.57
2023-04-13T04:39:10.116Z,75.61
2023-04-13T04:41:37.948Z,74.64
2023-04-13T04:44:07.933Z,72.79
2023-04-13T04:46:38.847Z,72.24
2023-04-13T04:49:05.590Z,71.79
2023-04-13T04:51:34.330Z,71.29
2023-04-13T04:54:02.410Z,69.03
2023-04-13T04:56:29.228Z,68.11
2023-04-13T04:58:55.921Z,67.87
2023-04-13T05:01:26.778Z,67.90
2023-04-13T05:03:53.821Z,68.83
2023-04-13T05:06:20.545Z,69.24
2023-04-13T05:08:47.189Z,70.06
2023-04-13T05:11:13.903Z,70.12
2023-04-13T05:13:40.679Z,70.10
2023-04-13T05:16:07.823Z,72.21
2023-04-13T05:18:43.228Z,71.68
2023-04-13T05:21:09.992Z,73.72
2023-04-13T05:23:36.861Z,81.83
2023-04-13T05:26:03.572Z,83.93
2023-04-13T05:28:30.240Z,81.23
2023-04-13T05:31:03.393Z,84.14
2023-04-13T05:33:30.472Z,84.45
2023-04-13T05:35:57.469Z,84.66
2023-04-13T05:38:24.450Z,82.28
2023-04-13T05:40:51.138Z,87.01
2023-04-13T05:43:17.994Z,85.93
2023-04-13T05:45:44.679Z,86.58
2023-04-13T05:48:11.965Z,88.22
2023-04-13T05:50:38.857Z,87.52
2023-04-13T05:53:08.835Z,88.07
2023-04-13T05:55:35.507Z,85.38
2023-04-13T05:58:03.988Z,85.59
2023-04-13T06:00:30.732Z,83.61
2023-04-13T06:02:59.501Z,82.49
2023-04-13T06:05:26.421Z,82.97
2023-04-13T06:07:53.800Z,81.87
2023-04-13T06:10:20.505Z,81.05
2023-04-13T06:12:48.902Z,77.99
2023-04-13T06:15:15.666Z,82.12
2023-04-13T06:17:44.402Z,83.97
2023-04-13T06:20:11.440Z,86.09
2023-04-13T06:22:38.097Z,82.84
2023-04-13T06:25:04.933Z,81.69
2023-04-13T06:27:33.824Z,79.06
2023-04-13T06:30:01.378Z,80.79
2023-04-13T06:32:28.168Z,78.80
2023-04-13T06:34:54.949Z,84.79
2023-04-13T06:37:22.480Z,82.16
2023-04-13T06:39:49.193Z,81.33
2023-04-13T06:42:16.426Z,81.30
2023-04-13T06:44:43.069Z,75.67
2023-04-13T06:47:09.801Z,77.49
2023-04-13T06:49:37.064Z,75.98
2023-04-13T06:52:03.775Z,75.67
2023-04-13T06:54:30.924Z,74.13
2023-04-13T06:56:57.945Z,75.14
2023-04-13T06:59:24.655Z,76.04
2023-04-13T07:01:51.651Z,76.07
2023-04-13T07:04:18.581Z,76.33
2023-04-13T07:06:45.688Z,79.91
2023-04-13T07:09:13.398Z,81.13
2023-04-13T07:11:40.069Z,84.39
2023-04-13T07:14:06.894Z,81.48
2023-04-13T07:16:33.663Z,79.85
2023-04-13T07:19:02.014Z,80.53
2023-04-13T07:21:28.809Z,81.82
2023-04-13T07:23:55.556Z,83.78
2023-04-13T07:26:22.222Z,86.96
2023-04-13T07:28:48.871Z,87.22
2023-04-13T07:31:16.380Z,83.53
2023-04-13T07:33:43.172Z,83.11
2023-04-13T07:36:10.232Z,84.40
2023-04-13T07:38:36.915Z,83.62
2023-04-13T07:41:03.603Z,81.51
2023-04-13T07:43:30.367Z,82.21
2023-04-13T07:45:57.101Z,79.90
2023-04-13T07:48:25.825Z,84.60
2023-04-13T07:50:52.985Z,81.23
2023-04-13T07:53:19.664Z,80.42
2023-04-13T07:55:46.335Z,76.88
2023-04-13T07:58:13.027Z,76.97
2023-04-13T08:00:39.725Z,76.71
2023-04-13T08:03:07.342Z,76.75
2023-04-13T08:05:35.380Z,75.32
2023-04-13T08:08:10.810Z,76.28
2023-04-13T08:10:37.475Z,74.12
2023-04-13T08:13:04.136Z,74.04
2023-04-13T08:15:30.803Z,77.05
2023-04-13T08:17:58.686Z,76.39
2023-04-13T08:20:25.517Z,77.67
2023-04-13T08:22:52.428Z,81.01
2023-04-13T08:25:20.281Z,81.44
2023-04-13T08:27:46.912Z,80.24
2023-04-13T08:30:16.631Z,79.69
2023-04-13T08:32:43.299Z,76.56
2023-04-13T08:35:10.557Z,80.00
2023-04-13T08:37:38.700Z,83.13
2023-04-13T08:40:07.926Z,81.96
2023-04-13T08:42:34.910Z,80.32
2023-04-13T08:45:01.614Z,76.64
2023-04-13T08:47:28.547Z,78.23
2023-04-13T08:50:01.805Z,78.14
2023-04-13T08:52:28.915Z,76.74
2023-04-13T08:54:56.320Z,76.05
2023-04-13T08:57:23.261Z,76.97
2023-04-13T08:59:50.636Z,77.95
2023-04-13T09:02:17.842Z,78.08
2023-04-13T09:04:45.175Z,77.10
2023-04-13T09:07:16.428Z,76.51
2023-04-13T09:09:44.076Z,78.89
2023-04-13T09:12:10.794Z,76.78
2023-04-13T09:14:38.671Z,77.28
2023-04-13T09:17:06.922Z,76.75
2023-04-13T09:19:34.183Z,79.54
2023-04-13T09:22:11.245Z,79.74
2023-04-13T09:24:41.430Z,82.59
2023-04-13T09:27:17.569Z,83.65
2023-04-13T09:29:51.778Z,82.43
2023-04-13T09:32:22.823Z,80.95
2023-04-13T09:34:59.484Z,81.31
2023-04-13T09:37:28.528Z,78.15
2023-04-13T09:39:55.286Z,78.88
2023-04-13T09:42:21.981Z,79.83
2023-04-13T09:44:58.187Z,80.33
2023-04-13T09:47:25.708Z,79.77
2023-04-13T09:49:52.529Z,79.75
2023-04-13T09:52:25.669Z,81.51
2023-04-13T09:54:57.394Z,81.78
2023-04-13T09:57:27.801Z,81.85
2023-04-13T09:59:55.043Z,83.23
2023-04-13T10:02:22.180Z,82.24
2023-04-13T10:04:49.062Z,82.10
2023-04-13T10:07:19.614Z,85.12
2023-04-13T10:09:46.274Z,87.38
2023-04-13T10:12:13.821Z,89.60
2023-04-13T10:14:43.310Z,89.88
2023-04-13T10:17:29.056Z,90.08
2023-04-13T10:19:55.941Z,90.92
2023-04-13T10:22:24.184Z,93.71
2023-04-13T10:24:51.471Z,90.58
2023-04-13T10:27:21.851Z,89.70
2023-04-13T10:29:48.803Z,90.91
2023-04-13T10:32:23.038Z,88.26
2023-04-13T10:34:49.929Z,84.96
2023-04-13T10:37:20.132Z,85.46
2023-04-13T10:39:47.228Z,83.83
2023-04-13T10:42:14.970Z,87.36
2023-04-13T10:44:43.992Z,89.00
2023-04-13T10:47:11.630Z,86.17
2023-04-13T10:49:38.590Z,85.45
2023-04-13T10:52:05.294Z,85.40
2023-04-13T10:54:31.922Z,86.64
2023-04-13T10:56:59.476Z,85.84
2023-04-13T10:59:58.844Z,85.08
2023-04-13T11:02:26.957Z,84.01
2023-04-13T11:04:54.198Z,83.22
2023-04-13T11:07:23.493Z,83.42
2023-04-13T11:09:53.595Z,82.03
2023-04-13T11:12:20.295Z,84.42
2023-04-13T11:14:50.498Z,82.71
2023-04-13T11:17:20.226Z,83.04
2023-04-13T11:19:50.779Z,87.08
2023-04-13T11:22:23.028Z,84.58
2023-04-13T11:24:50.207Z,86.71
2023-04-13T11:27:17.724Z,86.09
2023-04-13T11:29:44.496Z,86.02
2023-04-13T11:32:18.853Z,96.02
2023-04-13T11:34:47.161Z,97.32
2023-04-13T11:37:13.834Z,94.99
2023-04-13T11:39:42.884Z,95.29
2023-04-13T11:42:09.690Z,98.60
2023-04-13T11:44:36.815Z,98.23
2023-04-13T11:47:04.075Z,95.96
2023-04-13T11:49:31.527Z,96.28
2023-04-13T11:52:01.926Z,96.01
2023-04-13T11:54:31.881Z,98.14
2023-04-13T11:56:58.840Z,97.18
2023-04-13T11:59:25.608Z,99.38
2023-04-13T12:02:01.465Z,100.00
2023-04-13T12:04:37.103Z,100.00
2023-04-13T12:07:09.375Z,100.00
2023-04-13T12:15:13.716Z,98.62
2023-04-13T12:20:24.163Z,100.00
2023-04-13T12:22:55.190Z,100.00
2023-04-13T12:28:00.295Z,97.73
2023-04-13T12:30:27.399Z,93.14
2023-04-13T12:32:55.020Z,95.74
2023-04-13T12:35:21.929Z,98.78
2023-04-13T12:37:48.910Z,97.99
2023-04-13T12:40:16.829Z,100.00
2023-04-13T12:42:43.842Z,97.96
2023-04-13T12:45:10.902Z,96.94
2023-04-13T12:47:37.891Z,95.94
2023-04-13T12:50:05.033Z,98.03
2023-04-13T12:52:32.497Z,98.95
2023-04-13T12:55:00.240Z,99.90
2023-04-13T12:57:27.832Z,100.00
2023-04-13T12:59:54.873Z,100.00
2023-04-13T13:02:25.426Z,100.00
2023-04-13T13:04:52.317Z,95.63
2023-04-13T13:07:19.123Z,95.94
2023-04-13T13:09:46.162Z,93.64
2023-04-13T13:12:12.953Z,93.56
2023-04-13T13:14:39.640Z,98.06
2023-04-13T13:17:06.373Z,96.29
2023-04-13T13:19:33.229Z,97.92
2023-04-13T13:22:00.849Z,98.24
2023-04-13T13:24:27.619Z,98.34
2023-04-13T13:27:30.045Z,97.21
2023-04-13T13:29:41.653Z,97.43
2023-04-13T13:32:08.879Z,100.00
2023-04-13T13:34:35.835Z,100.00
2023-04-13T13:37:02.490Z,99.07
2023-04-13T13:39:29.193Z,96.17
2023-04-13T13:41:57.091Z,94.32
2023-04-13T13:44:23.887Z,96.30
2023-04-13T13:46:50.618Z,97.89
2023-04-13T13:49:17.271Z,96.70
2023-04-13T13:51:43.962Z,96.00
2023-04-13T13:54:10.629Z,99.74
2023-04-13T13:56:37.352Z,97.51
2023-04-13T13:59:04.109Z,99.72
2023-04-13T14:01:31.628Z,100.00
2023-04-13T14:03:59.408Z,98.23
2023-04-13T14:06:26.653Z,93.70
2023-04-13T14:08:53.574Z,92.89
2023-04-13T14:11:20.261Z,95.06
2023-04-13T14:13:46.980Z,98.45
2023-04-13T14:16:13.736Z,100.00
2023-04-13T14:18:40.469Z,100.00
2023-04-13T14:21:07.493Z,100.00
2023-04-13T14:23:34.155Z,100.00
2023-04-13T14:26:00.877Z,100.00
2023-04-13T14:28:27.573Z,100.00
2023-04-13T14:30:54.244Z,98.08
2023-04-13T14:33:21.256Z,99.75
2023-04-13T14:35:48.017Z,98.35
2023-04-13T14:38:14.886Z,99.76
2023-04-13T14:40:41.768Z,98.63
2023-04-13T14:43:08.494Z,96.80
2023-04-13T14:45:35.173Z,100.00
2023-04-13T14:48:02.005Z,100.00
2023-04-13T14:50:29.220Z,100.00
2023-04-13T14:52:56.043Z,100.00
2023-04-13T14:55:23.228Z,100.00
2023-04-13T14:57:50.292Z,100.00
2023-04-13T15:00:26.554Z,100.00
2023-04-13T15:02:53.681Z,100.00
2023-04-13T15:05:20.617Z,100.00
2023-04-13T15:07:48.064Z,100.00
2023-04-13T15:10:14.801Z,100.00
2023-04-13T15:12:41.527Z,100.00
2023-04-13T15:15:08.472Z,100.00
2023-04-13T15:17:35.279Z,100.00
2023-04-13T15:20:02.061Z,100.00
2023-04-13T15:22:30.318Z,100.00
2023-04-13T15:24:57.006Z,100.00
2023-04-13T15:27:25.882Z,100.00
2023-04-13T15:29:54.334Z,100.00
2023-04-13T15:32:21.072Z,100.00
2023-04-13T15:34:49.708Z,100.00
2023-04-13T15:37:16.813Z,100.00
2023-04-13T15:39:43.482Z,100.00
2023-04-13T15:42:10.138Z,100.00
2023-04-13T15:44:36.941Z,100.00
2023-04-13T15:47:03.574Z,100.00
2023-04-13T15:49:31.607Z,100.00
2023-04-13T15:51:58.305Z,100.00
2023-04-13T15:54:24.952Z,100.00
2023-04-13T15:56:51.791Z,100.00
2023-04-13T15:59:18.503Z,100.00
2023-04-13T16:01:45.839Z,100.00
2023-04-13T16:04:12.740Z,100.00
2023-04-13T16:06:39.934Z,100.00
2023-04-13T16:09:06.586Z,100.00
2023-04-13T16:11:33.334Z,100.00
2023-04-13T16:14:07.426Z,100.00
2023-04-13T16:16:57.512Z,100.00
2023-04-13T16:19:24.200Z,100.00
2023-04-13T16:21:54.096Z,100.00
2023-04-13T16:24:21.333Z,100.00
2023-04-13T16:26:48.174Z,100.00
2023-04-13T16:29:14.806Z,100.00
2023-04-13T16:31:45.048Z,100.00
2023-04-13T16:34:24.450Z,100.00
2023-04-13T16:36:52.845Z,100.00
2023-04-13T16:39:19.504Z,100.00
2023-04-13T16:41:46.260Z,100.00
2023-04-13T16:44:12.940Z,100.00
2023-04-13T16:46:39.609Z,100.00
2023-04-13T16:49:06.374Z,100.00
2023-04-13T16:51:33.124Z,100.00
2023-04-13T16:53:59.926Z,100.00
2023-04-13T16:56:29.921Z,100.00
2023-04-13T16:58:56.908Z,100.00
2023-04-13T17:01:25.348Z,100.00
2023-04-13T17:03:53.328Z,99.16
2023-04-13T17:06:20.481Z,100.00
2023-04-13T17:08:47.137Z,100.00
2023-04-13T17:11:13.830Z,100.00
2023-04-13T17:13:40.483Z,100.00
2023-04-13T17:16:08.230Z,100.00
2023-04-13T17:18:34.948Z,100.00
2023-04-13T17:21:01.632Z,100.00
2023-04-13T17:23:28.282Z,100.00
2023-04-13T17:25:56.670Z,100.00
2023-04-13T17:28:23.516Z,100.00
2023-04-13T17:30:50.208Z,100.00
2023-04-13T17:33:16.936Z,100.00
2023-04-13T17:35:43.589Z,100.00
2023-04-13T17:38:10.310Z,100.00
2023-04-13T17:40:37.007Z,100.00
2023-04-13T17:43:05.777Z,100.00
2023-04-13T17:45:32.546Z,100.00
2023-04-13T17:47:59.351Z,100.00
2023-04-13T17:50:26.108Z,100.00
2023-04-13T17:52:52.768Z,100.00
2023-04-13T17:55:19.525Z,100.00
2023-04-13T17:57:46.224Z,100.00
2023-04-13T18:00:13.322Z,100.00
2023-04-13T18:02:40.187Z,100.00
2023-04-13T18:05:07.464Z,100.00
2023-04-13T18:07:34.118Z,100.00
2023-04-13T18:10:00.781Z,100.00
2023-04-13T18:12:27.457Z,100.00
2023-04-13T18:14:54.154Z,100.00
2023-04-13T18:17:21.774Z,100.00
2023-04-13T18:19:51.613Z,100.00
2023-04-13T18:22:18.288Z,100.00
2023-04-13T18:24:44.977Z,100.00
2023-04-13T18:27:12.291Z,100.00
2023-04-13T18:29:39.016Z,100.00
2023-04-13T18:32:05.820Z,100.00
2023-04-13T18:34:34.417Z,100.00
2023-04-13T18:37:02.476Z,100.00
2023-04-13T18:39:29.141Z,100.00
2023-04-13T18:41:55.867Z,100.00
2023-04-13T18:44:22.599Z,100.00
2023-04-13T18:46:49.394Z,100.00
2023-04-13T18:49:16.893Z,100.00
2023-04-13T18:51:44.299Z,100.00
2023-04-13T18:54:11.000Z,100.00
2023-04-13T18:56:37.683Z,100.00
2023-04-13T18:59:04.413Z,100.00
2023-04-13T19:01:31.102Z,100.00
2023-04-13T19:03:57.945Z,100.00
2023-04-13T19:06:25.072Z,100.00
2023-04-13T19:08:51.734Z,100.00
2023-04-13T19:11:19.738Z,100.00
2023-04-13T19:13:48.255Z,100.00
2023-04-13T19:16:14.950Z,100.00
2023-04-13T19:18:41.737Z,100.00
2023-04-13T19:21:08.469Z,100.00
2023-04-13T19:23:35.530Z,100.00
2023-04-13T19:26:03.267Z,100.00
2023-04-13T19:28:29.951Z,100.00
2023-04-13T19:30:56.771Z,100.00
2023-04-13T19:33:23.458Z,100.00
2023-04-13T19:35:50.116Z,100.00
2023-04-13T19:38:17.049Z,100.00
2023-04-13T19:40:43.791Z,100.00
2023-04-13T19:43:10.489Z,100.00
2023-04-13T19:45:37.230Z,100.00
2023-04-13T19:48:04.044Z,100.00
2023-04-13T19:50:30.796Z,100.00
2023-04-13T19:52:58.363Z,100.00
2023-04-13T19:55:25.103Z,100.00
2023-04-13T19:57:51.849Z,100.00
2023-04-13T20:00:20.398Z,100.00
2023-04-13T20:02:49.823Z,100.00
2023-04-13T20:05:17.084Z,100.00
2023-04-13T20:07:43.733Z,100.00
2023-04-13T20:10:11.571Z,100.00
2023-04-13T20:12:38.401Z,100.00
2023-04-13T20:15:05.504Z,100.00
2023-04-13T20:17:32.239Z,100.00
2023-04-13T20:20:00.316Z,100.00
2023-04-13T20:22:27.131Z,100.00
2023-04-13T20:24:53.986Z,100.00
2023-04-13T20:27:23.602Z,100.00
2023-04-13T20:29:51.489Z,100.00
2023-04-13T20:32:18.200Z,100.00
2023-04-13T20:34:45.395Z,100.00
2023-04-13T20:37:14.548Z,100.00
2023-04-13T20:39:50.607Z,100.00
2023-04-13T20:42:18.404Z,100.00
2023-04-13T20:44:46.098Z,100.00
2023-04-13T20:47:13.847Z,100.00
2023-04-13T20:49:47.230Z,100.00
2023-04-13T20:52:14.232Z,100.00
2023-04-13T20:54:41.598Z,100.00
2023-04-13T20:57:09.515Z,100.00
2023-04-13T20:59:37.430Z,100.00
2023-04-13T21:02:04.980Z,100.00
2023-04-13T21:04:31.838Z,100.00
2023-04-13T21:07:02.294Z,100.00
2023-04-13T21:09:29.597Z,100.00
2023-04-13T21:11:57.012Z,100.00
2023-04-13T21:14:24.959Z,100.00
2023-04-13T21:16:52.039Z,100.00
2023-04-13T21:19:18.994Z,100.00
2023-04-13T21:21:45.657Z,100.00
2023-04-13T21:24:12.325Z,100.00
2023-04-13T21:26:39.046Z,100.00
2023-04-13T21:29:05.851Z,100.00
2023-04-13T21:31:32.518Z,100.00
2023-04-13T21:34:00.145Z,100.00
2023-04-13T21:38:57.099Z,100.00
2023-04-13T21:41:23.766Z,100.00
2023-04-13T21:43:50.445Z,100.00
2023-04-13T21:46:17.153Z,100.00
2023-04-13T21:48:43.897Z,100.00
2023-04-13T21:51:10.801Z,100.00
2023-04-13T21:53:38.362Z,100.00
2023-04-13T21:56:05.514Z,100.00
2023-04-13T21:58:41.848Z,100.00
2023-04-13T22:01:08.770Z,100.00
2023-04-13T22:03:37.129Z,100.00
2023-04-13T22:06:04.856Z,100.00
2023-04-13T22:08:32.228Z,100.00
2023-04-13T22:10:59.053Z,100.00
2023-04-13T22:13:25.848Z,100.00
2023-04-13T22:15:52.537Z,100.00
2023-04-13T22:18:19.253Z,100.00
2023-04-13T22:20:46.118Z,100.00
2023-04-13T22:23:12.887Z,100.00
2023-04-13T22:25:39.555Z,100.00
2023-04-13T22:28:06.243Z,100.00
2023-04-13T22:30:32.952Z,100.00
2023-04-13T22:32:59.698Z,100.00
2023-04-13T22:35:26.821Z,100.00
2023-04-13T22:37:53.588Z,100.00
2023-04-13T22:40:20.229Z,100.00
2023-04-13T22:42:46.878Z,100.00
2023-04-13T22:45:13.503Z,100.00
2023-04-13T22:47:40.179Z,100.00
2023-04-13T22:50:07.317Z,100.00
2023-04-13T22:52:33.976Z,100.00
2023-04-13T22:55:00.732Z,100.00
2023-04-13T22:57:27.381Z,100.00
2023-04-13T22:59:54.074Z,100.00
2023-04-13T23:02:20.861Z,100.00
2023-04-13T23:04:47.750Z,100.00
2023-04-13T23:07:14.507Z,100.00
2023-04-13T23:09:41.142Z,100.00
2023-04-13T23:12:07.885Z,100.00
2023-04-13T23:14:34.621Z,100.00
2023-04-13T23:17:01.348Z,100.00
2023-04-13T23:19:28.037Z,100.00
2023-04-13T23:21:54.713Z,100.00
2023-04-13T23:24:21.361Z,100.00
2023-04-13T23:26:48.009Z,100.00
2023-04-13T23:29:16.330Z,100.00
2023-04-13T23:31:43.302Z,100.00
2023-04-13T23:34:10.007Z,100.00
2023-04-13T23:36:36.773Z,100.00
2023-04-13T23:39:04.445Z,100.00
2023-04-13T23:41:31.122Z,100.00
2023-04-13T23:43:57.891Z,100.00
2023-04-13T23:46:24.704Z,100.00
2023-04-13T23:48:51.618Z,100.00
2023-04-13T23:51:18.314Z,100.00
2023-04-13T23:53:44.946Z,100.00
2023-04-13T23:56:11.616Z,100.00
2023-04-13T23:58:38.269Z,100.00
